Regionale Übersicht

METAR und TAF

Freitag, 23. August 2019 - 03:35 Uhr

Beobachtete horizontale meteorologische Sicht an ausgewählten Flughäfen. Die vollständigen METARs und Flugwettervorhersagen (TAFs) sind verfügbar, wenn Sie auf das entsprechende Symbol mit der ICAO-Flughafenkennung klicken.

  • Luxemburg (ELLX)

    Taf: TAF ELLX 222300Z 2300/2406 06007KT CAVOK=

    Metar: METAR ELLX 230120Z AUTO 03006KT 9999 NCD 16/09 Q1026 NOSIG=

  • Spangdahlem (ETAD)

    Taf: TAF ETAD 2220/2402 02005KT 9999 FEW200 QNH3026INS BECMG 2311/2312 09005KT 9999 FEW200 QNH3025INS TX25/2316Z TN11/2304Z LAST NO AMDS AFT 2220=

    Metar: nil

  • Metz/Nancy (LFJL)

    Taf: TAF LFJL 222300Z 2300/2324 03006KT CAVOK BECMG 2309/2312 09012KT=

    Metar: nil

  • Saarbrücken/Intl (EDDR)

    Taf: TAF EDDR 222300Z 2300/2324 05005KT CAVOK=

    Metar: nil

  • Hahn (EDFH)

    Taf: TAF EDFH 222300Z 2300/2324 10003KT CAVOK BECMG 2309/2311 09008KT BECMG 2319/2321 11003KT=

    Metar: nil

  • Ramstein (ETAR)

    Taf: TAF ETAR 221800Z 2218/2324 VRB04KT 9999 SKC QNH3024INS BECMG 2308/2309 08009KT 9999 SKC QNH3020INS TEMPO 2311/2314 09012G20KT BECMG 2317/2318 06006KT 9999 SKC QNH3019INS TX27/2314Z TN06/2303Z=

    Metar: nil

  • Nancy/Ochey (LFSO)

    Taf: TAF AMD LFSO 222140Z 2221/2321 CNL=

    Metar: nil

  • Liège Bierset (EBLG)

    Taf: TAF EBLG 222320Z 2300/2406 VRB03KT CAVOK=

    Metar: nil

  • Saint-Dizier (LFSI)

    Taf: TAF LFSI 222000Z 2221/2321 03003KT CAVOK=

    Metar: nil

  • Maastricht/Zuid Limburg (EHBK)

    Taf: TAF EHBK 222255Z 2300/2406 09004KT CAVOK=

    Metar: nil

  • Köln/Köln-Bonn (EDDK)

    Taf: TAF EDDK 222300Z 2300/2406 VRB03KT CAVOK BECMG 2310/2312 05005KT=

    Metar: METAR EDDK 230120Z VRB01KT CAVOK 11/10 Q1026 NOSIG=

  • Charleroi (EBCI)

    Taf: TAF EBCI 222320Z 2300/2406 VRB03KT CAVOK=

    Metar: nil

  • Wiesbaden (ETOU)

    Taf: TAF ETOU 221900Z 2219/2401 03006KT 9999 FEW040 QNH3028INS BECMG 2310/2311 09012KT 9999 SKC QNH3020INS BECMG 2315/2316 06006KT 9999 SKC QNH3018INS TX27/2315Z TN12/2305Z=

    Metar: nil

  • Karlsruhe/Baden-Baden (EDSB)

    Taf: TAF AMD EDSB 222318Z 2223/2318 CNL=

    Metar: nil

  • Chalons/Vatry (LFOK)

    Taf: TAF LFOK 222300Z 2300/2324 03008KT CAVOK=

    Metar: nil

  • Frankfurt/Main (EDDF)

    Taf: TAF EDDF 222300Z 2300/2406 05004KT CAVOK=

    Metar: METAR EDDF 230120Z AUTO 04003KT //// R07L/P2000N R07C/P2000N R07R/P2000N R18/P2000N // ///////// 14/10 Q1025 NOSIG=

  • Brüssel (EBBR)

    Taf: TAF EBBR 222320Z 2300/2406 VRB03KT CAVOK=

    Metar: METAR EBBR 230120Z 17004KT CAVOK 12/11 Q1026 NOSIG=

  • Düsseldorf (EDDL)

    Taf: TAF EDDL 222300Z 2300/2406 VRB03KT CAVOK BECMG 2308/2311 03006KT=

    Metar: nil

  • Luxeuil (LFSX)

    Taf: TAF LFSX 222000Z NIL=

    Metar: nil

  • Eindhoven (EHEH)

    Taf: TAF EHEH 222336Z 2300/2406 VRB02KT CAVOK TEMPO 2300/2306 4000 BR MIFG BECMG 2308/2310 05003KT=

    Metar: nil

  • Niederrhein (EDLV)

    Taf: TAF EDLV 222300Z NIL=

    Metar: nil

  • Dortmund/Wickede (EDLW)

    Taf: TAF EDLW 222300Z NIL=

    Metar: nil

  • Stuttgart/Echterdingen (EDDS)

    Taf: TAF EDDS 222300Z 2300/2324 VRB03KT CAVOK BECMG 2309/2311 09008KT BECMG 2316/2318 06003KT=

    Metar: METAR EDDS 230120Z VRB01KT CAVOK 12/10 Q1026=

  • Basel-Mühlhausen (LFSB)

    Taf: TAF LFSB 222300Z 2300/2324 15005KT 9999 SCT035 PROB30 TEMPO 2303/2306 MIFG=

    Metar: METAR LFSB 230100Z AUTO 15003KT CAVOK 15/13 Q1025 NOSIG=

  • Lille (LFQQ)

    Taf: TAF LFQQ 222300Z 2300/2406 VRB02KT CAVOK BECMG 2306/2308 16010KT BECMG 2319/2321 VRB02KT=

    Metar: nil

  • Paris/Charles de Gaulle (LFPG)

    Taf: TAF LFPG 222300Z 2300/2406 02008KT CAVOK TX28/2315Z TN13/2304Z=

    Metar: nil

  • Paderborn/Lippstadt (EDLP)

    Taf: TAF EDLP 222300Z 2300/2324 VRB03KT CAVOK BECMG 2308/2311 08006KT=

    Metar: nil

  • Paris/Le Bourget (LFPB)

    Taf: TAF LFPB 222300Z 2300/2324 02008KT CAVOK=

    Metar: METAR LFPB 230100Z AUTO 02002KT CAVOK 15/10 Q1026 NOSIG=

  • Rotterdam (EHRD)

    Taf: TAF EHRD 222250Z 2300/2406 20004KT CAVOK PROB30 TEMPO 2301/2306 4000 MIFG BECMG 2314/2317 03005KT PROB30 TEMPO 2400/2406 4000 MIFG=

    Metar: nil

  • Zürich/Kloten (LSZH)

    Taf: TAF LSZH 222325Z 2300/2406 VRB03KT CAVOK TX25/2315Z TN12/2302Z TN14/2402Z BECMG 2301/2304 9999 BKN013 BECMG 2309/2311 05008KT SCT020 BECMG 2313/2317 CAVOK BECMG 2317/2320 VRB03KT BECMG 2323/2402 4000 BR SCT008 BECMG 2402/2404 2000 OVC007=

    Metar: METAR LSZH 230120Z 30003KT 8000 MIFG NSC 11/11 Q1025 NOSIG=

  • Oostende/Intl (EBOS)

    Taf: TAF EBOS 222320Z 2300/2406 20003KT CAVOK TEMPO 2302/2307 2400 MIFG BR PROB30 TEMPO 2304/2306 0800 BCFG=

    Metar: nil

  • Paris/Orly (LFPO)

    Taf: TAF LFPO 222300Z 2300/2406 02007KT CAVOK=

    Metar: nil

  • Beauvais (LFOB)

    Taf: TAF LFOB 222300Z 2300/2324 VRB03KT CAVOK TEMPO 2318/2319 01013KT=

    Metar: nil

  • Münster/Intl (EDDG)

    Taf: TAF EDDG 222300Z 2300/2324 VRB02KT CAVOK=

    Metar: METAR EDDG 230120Z VRB01KT CAVOK 12/10 Q1026 NOSIG=

  • Illesheim (ETIK)

    Taf: TAF ETIK 222200Z 2222/2404 10006KT 9999 SKC QNH3030INS BECMG 2305/2306 08012KT 9999 SKC QNH3025INS BECMG 2317/2318 VRB06KT 9999 SKC QNH3023INS TX24/2313Z TN11/2303Z=

    Metar: nil

  • Duebendorf (LSMD)

    Taf: TAF LSMD 221625Z 2217/2323 06007KT 9999 SCT020 BECMG 2217/2219 CAVOK BECMG 2222/2301 9999 BKN012 BECMG 2309/2312 SCT020 BECMG 2311/2313 CAVOK=

    Metar: nil

  • Villacoublay (LFPV)

    Taf: TAF LFPV 222000Z 2221/2321 04005KT CAVOK=

    Metar: nil

  • Payerne (LSMP)

    Taf: TAF LSMP 221625Z 2217/2323 05007KT CAVOK BECMG 2300/2302 9999 BKN014 BECMG 2308/2310 FEW030=

    Metar: nil

  • Amsterdam/Schipol (EHAM)

    Taf: TAF EHAM 222247Z 2300/2406 19004KT CAVOK BECMG 2314/2317 06005KT=

    Metar: METAR EHAM 230125Z 18003KT CAVOK 13/11 Q1025 NOSIG=

  • Emmen (LSME)

    Taf: TAF LSME 221625Z 2217/2323 VRB03KT 9999 BKN020 PROB30 2219/2222 CAVOK BECMG 2222/2301 9999 BKN012 PROB30 TEMPO 2300/2306 BKN008 BECMG 2309/2312 SCT020=

    Metar: nil

  • Friedrichshafen (EDNY)

    Taf: TAF EDNY 222300Z 2300/2324 03006KT 9999 FEW030=

    Metar: nil

  • Alpnach (LSMA)

    Taf: TAF LSMA 221625Z 2217/2323 05006KT 9999 OVC020 BECMG 2222/2301 BKN012 TEMPO 2300/2306 BKN008 BECMG 2309/2312 SCT020=

    Metar: nil

  • Meiringen (LSMM)

    Taf: TAF LSMM 221625Z 2217/2323 05015KT 9999 FEW070 BECMG 2217/2219 VRB03KT PROB40 2222/2306 BKN012 PROB30 2300/2306 BKN008=

    Metar: nil

  • Nürnberg (EDDN)

    Taf: TAF EDDN 222300Z 2300/2324 VRB03KT 9999 SCT035 BECMG 2307/2309 06007KT=

    Metar: METAR EDDN 230120Z VRB02KT CAVOK 11/11 Q1026=

  • Rouen (LFOP)

    Taf: TAF LFOP 222300Z NIL=

    Metar: nil

  • Evreux (LFOE)

    Taf: TAF LFOE 222220Z 2222/2321 CNL=

    Metar: nil

  • Erfurt/Bindersleben (EDDE)

    Taf: TAF EDDE 222300Z 2300/2324 VRB03KT CAVOK BECMG 2308/2310 07006KT=

    Metar: nil